Time;durP1;ratioP1;P1;durP2;ratioP2;P2;SDS_P1;SDS_P2;PMS_P1;PMS_P2;Temp;Humidity;BMP_temperature;BMP_pressure;BME280_temperature;BME280_humidity;BME280_pressure;Samples;Min_cycle;Max_cycle;Signal;HPM_P1;HPM_P2
2022/11/04 00:01:30;;;;;;;;;;;9.00;99.90;;;;;;4372331;32;19950;-73
2022/11/04 00:03:55;;;;;;;;;;;9.00;99.90;;;;;;4357936;32;20079;-74
2022/11/04 00:06:21;;;;;;;;;;;9.10;99.90;;;;;;4356780;32;19984;-73
2022/11/04 00:08:48;;;;;;;;;;;9.10;99.90;;;;;;4370798;32;19981;-73
2022/11/04 00:12:29;;;;;;;;;;;9.10;99.90;;;;;;4370677;32;19947;-73
2022/11/04 00:13:58;;;;;;;;;;;9.10;99.90;;;;;;4360085;32;19957;-73
2022/11/04 00:17:25;;;;;;;;;;;9.10;99.90;;;;;;4370149;32;20036;-73
2022/11/04 00:19:09;;;;;;;;;;;9.10;99.90;;;;;;4358485;32;19970;-72
2022/11/04 00:29:06;;;;;;;;;;;9.10;99.90;;;;;;4361226;32;19986;-73
2022/11/04 00:29:52;;;;;;;;;;;9.20;99.90;;;;;;4365005;32;19965;-72
2022/11/04 00:33:30;;;;;;;;;;;9.10;99.90;;;;;;4370640;32;19984;-74
2022/11/04 00:35:03;;;;;;;;;;;9.10;99.90;;;;;;4343213;32;19943;-74
2022/11/04 00:37:28;;;;;;;;;;;9.10;99.90;;;;;;4363390;32;19966;-72
2022/11/04 00:39:54;;;;;;;;;;;9.00;99.90;;;;;;4371497;32;20666;-73
2022/11/04 00:42:19;;;;;;;;;;;9.00;99.90;;;;;;4371911;32;20007;-73
2022/11/04 00:44:44;;;;;;;;;;;9.10;99.90;;;;;;4370594;32;19957;-73
2022/11/04 00:47:10;;;;;;;;;;;9.00;99.90;;;;;;4371540;32;19945;-73
2022/11/04 00:49:35;;;;;;;;;;;9.00;99.90;;;;;;4371163;32;19954;-72
2022/11/04 00:52:01;;;;;;;;;;;8.90;99.90;;;;;;4369729;32;20408;-73
2022/11/04 00:54:26;;;;;;;;;;;9.00;99.90;;;;;;4372774;32;19968;-73
2022/11/04 00:56:52;;;;;;;;;;;9.00;99.90;;;;;;4372338;32;19973;-73
2022/11/04 00:59:18;;;;;;;;;;;8.90;99.90;;;;;;4373637;32;19942;-73
2022/11/04 01:01:44;;;;;;;;;;;8.90;99.90;;;;;;4372488;32;19956;-72
2022/11/04 01:04:09;;;;;;;;;;;8.90;99.90;;;;;;4355411;32;20032;-74
2022/11/04 01:06:34;;;;;;;;;;;8.90;99.90;;;;;;4358567;32;19954;-73
2022/11/04 01:09:02;;;;;;;;;;;8.90;99.90;;;;;;4370072;32;20051;-72
2022/11/04 01:11:29;;;;;;;;;;;8.90;99.90;;;;;;4370065;32;19969;-73
2022/11/04 01:13:55;;;;;;;;;;;8.80;99.90;;;;;;4371087;32;20012;-73
2022/11/04 01:16:20;;;;;;;;;;;8.80;99.90;;;;;;4368073;32;19978;-72
2022/11/04 01:18:46;;;;;;;;;;;8.70;99.90;;;;;;4370617;32;19953;-74
2022/11/04 01:21:12;;;;;;;;;;;8.70;99.90;;;;;;4373303;32;19973;-73
2022/11/04 01:23:38;;;;;;;;;;;8.70;99.90;;;;;;4371949;32;19945;-74
2022/11/04 01:26:06;;;;;;;;;;;8.70;99.90;;;;;;4372863;32;19962;-73
2022/11/04 01:28:31;;;;;;;;;;;8.80;99.90;;;;;;4370133;32;20008;-72
2022/11/04 01:30:56;;;;;;;;;;;8.80;99.90;;;;;;4371693;32;19962;-72
2022/11/04 01:33:23;;;;;;;;;;;8.70;99.90;;;;;;4370450;32;20418;-73
2022/11/04 01:35:49;;;;;;;;;;;8.70;99.90;;;;;;4357963;32;19992;-73
2022/11/04 01:38:15;;;;;;;;;;;8.70;99.90;;;;;;4369796;32;20333;-73
2022/11/04 01:40:40;;;;;;;;;;;8.70;99.90;;;;;;4373746;32;19962;-72
2022/11/04 01:43:14;;;;;;;;;;;8.70;99.90;;;;;;4374403;32;20418;-72
2022/11/04 01:45:40;;;;;;;;;;;8.60;99.90;;;;;;4374121;32;20006;-72
2022/11/04 01:48:11;;;;;;;;;;;8.60;99.90;;;;;;4370847;32;20028;-72
2022/11/04 01:50:37;;;;;;;;;;;8.60;99.90;;;;;;4371803;32;19946;-71
2022/11/04 01:53:06;;;;;;;;;;;8.50;99.90;;;;;;4371461;32;19933;-73
2022/11/04 01:55:33;;;;;;;;;;;8.60;99.90;;;;;;4374213;32;20376;-73
2022/11/04 01:58:01;;;;;;;;;;;8.60;99.90;;;;;;4370593;32;19946;-73
2022/11/04 02:00:27;;;;;;;;;;;8.60;99.90;;;;;;4371980;32;19981;-73
2022/11/04 02:02:55;;;;;;;;;;;8.60;99.90;;;;;;4369203;32;20280;-74
2022/11/04 02:05:21;;;;;;;;;;;8.60;99.90;;;;;;4361856;32;19993;-73
2022/11/04 02:07:49;;;;;;;;;;;8.70;99.90;;;;;;4368125;32;20000;-73
2022/11/04 02:10:14;;;;;;;;;;;8.70;99.90;;;;;;4372660;32;19974;-73
2022/11/04 02:12:55;;;;;;;;;;;8.70;99.90;;;;;;4371788;32;20023;-72
2022/11/04 02:15:29;;;;;;;;;;;8.80;99.90;;;;;;4370077;32;19974;-73
2022/11/04 02:18:02;;;;;;;;;;;8.70;99.90;;;;;;4372762;32;19946;-73
2022/11/04 02:20:29;;;;;;;;;;;8.70;99.90;;;;;;4373125;32;20449;-73
2022/11/04 02:23:05;;;;;;;;;;;8.70;99.90;;;;;;4371339;32;19984;-73
2022/11/04 02:25:50;;;;;;;;;;;8.70;99.90;;;;;;4371489;32;19962;-73
2022/11/04 02:28:17;;;;;;;;;;;8.70;99.90;;;;;;4360961;32;19995;-72
2022/11/04 02:31:03;;;;;;;;;;;8.80;99.90;;;;;;4374217;32;20323;-73
2022/11/04 02:33:33;;;;;;;;;;;8.80;99.90;;;;;;4353787;32;19950;-73
2022/11/04 02:36:01;;;;;;;;;;;8.80;99.90;;;;;;4358184;32;19973;-73
2022/11/04 02:38:29;;;;;;;;;;;8.80;99.90;;;;;;4369497;32;19946;-74
2022/11/04 02:40:57;;;;;;;;;;;8.80;99.90;;;;;;4371259;32;19992;-73
2022/11/04 02:43:25;;;;;;;;;;;8.80;99.90;;;;;;4366733;32;19953;-73
2022/11/04 02:45:56;;;;;;;;;;;8.80;99.90;;;;;;4375246;32;20009;-73
2022/11/04 02:48:27;;;;;;;;;;;8.70;99.90;;;;;;4372989;32;19969;-72
2022/11/04 02:50:55;;;;;;;;;;;8.80;99.90;;;;;;4374033;32;19990;-72
2022/11/04 02:53:25;;;;;;;;;;;8.70;99.90;;;;;;4373001;32;19966;-72
2022/11/04 02:55:52;;;;;;;;;;;8.70;99.90;;;;;;4374228;32;19949;-73
2022/11/04 02:58:20;;;;;;;;;;;8.70;99.90;;;;;;4374440;32;19970;-74
2022/11/04 03:00:46;;;;;;;;;;;8.80;99.90;;;;;;4375451;32;20005;-72
2022/11/04 03:03:14;;;;;;;;;;;8.80;99.90;;;;;;4367278;32;19978;-73
2022/11/04 03:05:43;;;;;;;;;;;8.80;99.90;;;;;;4352213;32;20414;-74
2022/11/04 03:08:13;;;;;;;;;;;8.80;99.90;;;;;;4370004;32;19961;-73
2022/11/04 03:10:41;;;;;;;;;;;8.80;99.90;;;;;;4373932;32;20017;-73
2022/11/04 03:13:10;;;;;;;;;;;8.80;99.90;;;;;;4372639;32;20002;-74
2022/11/04 03:15:37;;;;;;;;;;;8.80;99.90;;;;;;4372527;32;19942;-73
2022/11/04 03:18:13;;;;;;;;;;;8.80;99.90;;;;;;4373147;32;19946;-73
2022/11/04 03:20:39;;;;;;;;;;;8.90;99.90;;;;;;4372990;32;20362;-73
2022/11/04 03:23:05;;;;;;;;;;;8.80;99.90;;;;;;4373920;32;19966;-74
2022/11/04 03:25:35;;;;;;;;;;;8.90;99.90;;;;;;4371468;32;19974;-73
2022/11/04 03:28:20;;;;;;;;;;;8.90;99.90;;;;;;4369061;32;20354;-73
2022/11/04 03:30:47;;;;;;;;;;;8.90;99.90;;;;;;4363328;32;19963;-73
2022/11/04 03:33:32;;;;;;;;;;;8.90;99.90;;;;;;4365948;32;19953;-73
2022/11/04 03:35:57;;;;;;;;;;;8.90;99.90;;;;;;4343871;32;19980;-74
2022/11/04 03:38:23;;;;;;;;;;;9.00;99.90;;;;;;4370895;32;20296;-72
2022/11/04 03:40:49;;;;;;;;;;;8.90;99.90;;;;;;4372805;32;20324;-73
2022/11/04 03:43:24;;;;;;;;;;;8.90;99.90;;;;;;4371774;32;19973;-72
2022/11/04 03:45:50;;;;;;;;;;;8.80;99.90;;;;;;4370742;32;19957;-73
2022/11/04 03:48:16;;;;;;;;;;;8.80;99.90;;;;;;4367494;32;19978;-73
2022/11/04 03:50:42;;;;;;;;;;;8.80;99.90;;;;;;4371430;32;19965;-72
2022/11/04 03:53:08;;;;;;;;;;;8.80;99.90;;;;;;4371243;32;20005;-73
2022/11/04 03:55:54;;;;;;;;;;;8.70;99.90;;;;;;4374441;32;19958;-72
2022/11/04 03:58:26;;;;;;;;;;;8.70;99.90;;;;;;4364908;32;19968;-72
2022/11/04 04:00:59;;;;;;;;;;;8.70;99.90;;;;;;4372127;32;20012;-73
2022/11/04 04:03:28;;;;;;;;;;;8.70;99.90;;;;;;4361539;32;19973;-74
2022/11/04 04:05:55;;;;;;;;;;;8.70;99.90;;;;;;4353969;32;19952;-74
2022/11/04 04:08:29;;;;;;;;;;;8.70;99.90;;;;;;4370322;32;20033;-72
2022/11/04 04:11:04;;;;;;;;;;;8.70;99.90;;;;;;4373865;32;20395;-73
2022/11/04 04:13:34;;;;;;;;;;;8.70;99.90;;;;;;4370266;32;19970;-72
2022/11/04 04:16:02;;;;;;;;;;;8.80;99.90;;;;;;4372077;32;19962;-72
2022/11/04 04:18:34;;;;;;;;;;;8.80;99.90;;;;;;4367486;32;19942;-72
2022/11/04 04:21:02;;;;;;;;;;;8.80;99.90;;;;;;4375445;32;19965;-73
2022/11/04 04:27:30;;;;;;;;;;;8.80;99.90;;;;;;4358510;32;19985;-74
2022/11/04 04:29:02;;;;;;;;;;;8.70;99.90;;;;;;4370418;32;19946;-73
2022/11/04 04:32:00;;;;;;;;;;;8.70;99.90;;;;;;4372186;32;20362;-72
2022/11/04 04:34:15;;;;;;;;;;;8.70;99.90;;;;;;4347229;32;19992;-74
2022/11/04 04:36:44;;;;;;;;;;;8.70;99.90;;;;;;4359131;32;20311;-73
2022/11/04 04:45:13;;;;;;;;;;;8.80;99.90;;;;;;4362863;32;20307;-73
2022/11/04 04:47:30;;;;;;;;;;;8.80;99.90;;;;;;4359359;32;20824;-73
2022/11/04 04:49:56;;;;;;;;;;;8.80;99.90;;;;;;4371655;32;21156;-73
2022/11/04 04:52:23;;;;;;;;;;;8.80;99.90;;;;;;4373485;32;20325;-72
2022/11/04 04:54:48;;;;;;;;;;;8.80;99.90;;;;;;4374275;32;20346;-73
2022/11/04 04:57:14;;;;;;;;;;;8.70;99.90;;;;;;4369986;32;20030;-73
2022/11/04 04:59:39;;;;;;;;;;;8.70;99.90;;;;;;4371252;32;19949;-72
2022/11/04 05:02:05;;;;;;;;;;;8.70;99.90;;;;;;4370014;32;21239;-72
2022/11/04 05:04:30;;;;;;;;;;;8.70;99.90;;;;;;4356714;32;20440;-73
2022/11/04 05:06:55;;;;;;;;;;;8.70;99.90;;;;;;4363635;32;19961;-73
2022/11/04 05:09:21;;;;;;;;;;;8.80;99.90;;;;;;4377192;32;19954;-73
2022/11/04 05:11:47;;;;;;;;;;;8.80;99.90;;;;;;4374800;32;19965;-72
2022/11/04 05:14:12;;;;;;;;;;;8.90;99.90;;;;;;4374928;32;19961;-73
2022/11/04 05:16:37;;;;;;;;;;;9.10;99.90;;;;;;4374417;32;20468;-73
2022/11/04 05:19:03;;;;;;;;;;;9.00;99.90;;;;;;4376154;32;19953;-72
2022/11/04 05:21:28;;;;;;;;;;;9.00;99.90;;;;;;4380189;32;20490;-73
2022/11/04 05:23:54;;;;;;;;;;;9.00;99.90;;;;;;4376497;32;19957;-72
2022/11/04 05:26:20;;;;;;;;;;;9.00;99.90;;;;;;4375121;32;19957;-72
2022/11/04 05:28:45;;;;;;;;;;;9.00;99.90;;;;;;4376361;32;20014;-72
2022/11/04 05:31:11;;;;;;;;;;;9.00;99.90;;;;;;4375827;32;20387;-72
2022/11/04 05:33:36;;;;;;;;;;;9.00;99.90;;;;;;4367652;32;19995;-74
2022/11/04 05:36:06;;;;;;;;;;;9.00;99.90;;;;;;4359052;32;19970;-74
2022/11/04 05:38:31;;;;;;;;;;;9.00;99.90;;;;;;4374755;32;19946;-73
2022/11/04 05:40:57;;;;;;;;;;;9.00;99.90;;;;;;4373967;32;20397;-73
2022/11/04 05:43:22;;;;;;;;;;;9.10;99.90;;;;;;4373469;32;19945;-73
2022/11/04 05:45:48;;;;;;;;;;;9.10;99.90;;;;;;4377051;32;20043;-72
2022/11/04 05:48:13;;;;;;;;;;;9.30;99.90;;;;;;4375012;32;20338;-73
2022/11/04 05:50:40;;;;;;;;;;;9.30;99.90;;;;;;4375387;32;20440;-72
2022/11/04 05:53:05;;;;;;;;;;;9.30;99.90;;;;;;4376292;32;19954;-72
2022/11/04 05:55:30;;;;;;;;;;;9.20;99.90;;;;;;4372952;32;19942;-72
2022/11/04 05:57:58;;;;;;;;;;;9.10;99.90;;;;;;4374085;32;19950;-73
2022/11/04 06:00:24;;;;;;;;;;;9.10;99.90;;;;;;4369067;32;19979;-72
2022/11/04 06:02:49;;;;;;;;;;;9.10;99.90;;;;;;4363691;32;20009;-72
2022/11/04 06:05:14;;;;;;;;;;;9.10;99.90;;;;;;4350050;32;19938;-73
2022/11/04 06:07:40;;;;;;;;;;;9.20;99.90;;;;;;4360143;32;19977;-73
2022/11/04 06:10:06;;;;;;;;;;;9.20;99.90;;;;;;4369248;32;19968;-74
2022/11/04 06:12:31;;;;;;;;;;;9.10;99.90;;;;;;4364852;32;20314;-75
2022/11/04 06:14:57;;;;;;;;;;;9.10;99.90;;;;;;4360699;32;19972;-74
2022/11/04 06:17:22;;;;;;;;;;;9.10;99.90;;;;;;4367226;32;20272;-74
2022/11/04 06:19:48;;;;;;;;;;;9.00;99.90;;;;;;4365680;32;20052;-74
2022/11/04 06:22:15;;;;;;;;;;;9.00;99.90;;;;;;4364854;32;19973;-74
2022/11/04 06:24:40;;;;;;;;;;;9.00;99.90;;;;;;4362454;32;20359;-74
2022/11/04 06:27:06;;;;;;;;;;;9.00;99.90;;;;;;4368121;32;19964;-73
2022/11/04 06:29:31;;;;;;;;;;;9.10;99.90;;;;;;4373103;32;19941;-73
2022/11/04 06:31:57;;;;;;;;;;;9.10;99.90;;;;;;4363498;32;19957;-74
2022/11/04 06:34:22;;;;;;;;;;;9.30;99.90;;;;;;4352481;32;19952;-75
2022/11/04 06:36:48;;;;;;;;;;;9.40;99.90;;;;;;4361261;32;19974;-73
2022/11/04 06:39:14;;;;;;;;;;;9.50;99.90;;;;;;4372912;32;19953;-73
2022/11/04 06:41:39;;;;;;;;;;;9.60;99.90;;;;;;4369810;32;20320;-74
2022/11/04 06:44:04;;;;;;;;;;;9.70;99.90;;;;;;4364597;32;19965;-75
2022/11/04 06:46:34;;;;;;;;;;;9.80;99.90;;;;;;4365390;32;20056;-73
2022/11/04 06:49:00;;;;;;;;;;;9.80;99.90;;;;;;4372863;32;19965;-73
2022/11/04 06:51:25;;;;;;;;;;;9.90;99.90;;;;;;4372875;32;19977;-73
2022/11/04 06:53:51;;;;;;;;;;;9.90;99.90;;;;;;4374478;32;19938;-73
2022/11/04 06:56:16;;;;;;;;;;;9.80;99.90;;;;;;4373207;32;19953;-72
2022/11/04 06:58:42;;;;;;;;;;;9.80;99.90;;;;;;4372746;32;20041;-73
2022/11/04 07:01:07;;;;;;;;;;;9.90;99.90;;;;;;4365561;32;19982;-72
2022/11/04 07:03:33;;;;;;;;;;;9.90;99.90;;;;;;4358242;32;19970;-75
2022/11/04 07:06:04;;;;;;;;;;;9.90;99.90;;;;;;4350032;32;20403;-74
2022/11/04 07:08:30;;;;;;;;;;;9.80;99.90;;;;;;4369365;32;20036;-72
2022/11/04 07:10:55;;;;;;;;;;;9.90;99.90;;;;;;4373841;32;20028;-73
2022/11/04 07:13:21;;;;;;;;;;;9.80;99.90;;;;;;4365550;32;20359;-74
2022/11/04 07:15:46;;;;;;;;;;;9.90;99.90;;;;;;4363553;32;19978;-73
2022/11/04 07:18:12;;;;;;;;;;;9.80;99.90;;;;;;4368090;32;19946;-72
2022/11/04 07:20:37;;;;;;;;;;;9.90;99.90;;;;;;4375432;32;19962;-72
2022/11/04 07:23:03;;;;;;;;;;;9.90;99.90;;;;;;4371308;32;20358;-73
2022/11/04 07:25:28;;;;;;;;;;;9.90;99.90;;;;;;4371493;32;20291;-72
2022/11/04 07:27:54;;;;;;;;;;;10.00;99.90;;;;;;4371967;32;19946;-72
2022/11/04 07:30:19;;;;;;;;;;;10.00;99.90;;;;;;4369129;32;19961;-73
2022/11/04 07:32:45;;;;;;;;;;;10.00;99.90;;;;;;4356802;32;20021;-75
2022/11/04 07:35:11;;;;;;;;;;;10.10;99.90;;;;;;4350945;32;19946;-74
2022/11/04 07:37:37;;;;;;;;;;;10.10;99.90;;;;;;4363748;32;19978;-72
2022/11/04 07:40:03;;;;;;;;;;;10.10;99.90;;;;;;4370667;32;20021;-72
2022/11/04 07:42:29;;;;;;;;;;;10.20;99.90;;;;;;4366422;32;20199;-73
2022/11/04 07:44:54;;;;;;;;;;;10.20;99.90;;;;;;4362012;32;19945;-74
2022/11/04 07:47:20;;;;;;;;;;;10.20;99.90;;;;;;4365739;32;19954;-72
2022/11/04 07:49:45;;;;;;;;;;;10.30;99.90;;;;;;4372786;32;19954;-72
2022/11/04 07:52:10;;;;;;;;;;;10.20;99.90;;;;;;4368373;32;20392;-72
2022/11/04 07:54:36;;;;;;;;;;;10.30;99.90;;;;;;4372286;32;19984;-72
2022/11/04 07:57:02;;;;;;;;;;;10.30;99.90;;;;;;4370115;32;20054;-72
2022/11/04 07:59:27;;;;;;;;;;;10.40;99.90;;;;;;4373568;32;20304;-72
2022/11/04 08:01:53;;;;;;;;;;;10.50;99.90;;;;;;4362861;32;19998;-74
2022/11/04 08:04:18;;;;;;;;;;;10.50;99.90;;;;;;4350199;32;20412;-73
2022/11/04 08:06:44;;;;;;;;;;;10.50;99.90;;;;;;4356816;32;19957;-73
2022/11/04 08:09:09;;;;;;;;;;;10.60;99.90;;;;;;4372560;32;19965;-73
2022/11/04 08:11:35;;;;;;;;;;;10.60;99.90;;;;;;4371934;32;19960;-74
2022/11/04 08:14:02;;;;;;;;;;;10.50;99.90;;;;;;4349540;32;19950;-73
2022/11/04 08:16:27;;;;;;;;;;;10.60;99.90;;;;;;4360105;32;19990;-71
2022/11/04 08:18:53;;;;;;;;;;;10.60;99.90;;;;;;4362478;32;20367;-72
2022/11/04 08:21:19;;;;;;;;;;;10.70;99.90;;;;;;4371946;32;19949;-73
2022/11/04 08:23:46;;;;;;;;;;;10.70;99.90;;;;;;4372748;32;19959;-73
2022/11/04 08:26:13;;;;;;;;;;;10.70;99.90;;;;;;4371820;32;20569;-72
2022/11/04 08:28:39;;;;;;;;;;;10.60;99.90;;;;;;4372563;32;20373;-72
2022/11/04 08:31:07;;;;;;;;;;;10.70;99.90;;;;;;4366634;32;19974;-73
2022/11/04 08:33:34;;;;;;;;;;;10.70;99.90;;;;;;4350007;32;107701;-75
2022/11/04 08:36:01;;;;;;;;;;;10.70;99.90;;;;;;4350831;32;19950;-74
2022/11/04 08:38:28;;;;;;;;;;;10.70;99.90;;;;;;4368968;32;20403;-73
2022/11/04 08:40:57;;;;;;;;;;;10.70;99.90;;;;;;4367757;32;20023;-73
2022/11/04 08:43:23;;;;;;;;;;;10.80;99.90;;;;;;4363312;32;19953;-75
2022/11/04 08:45:48;;;;;;;;;;;10.80;99.90;;;;;;4362476;32;19950;-74
2022/11/04 08:48:15;;;;;;;;;;;10.80;99.90;;;;;;4368732;32;19959;-72
2022/11/04 08:50:40;;;;;;;;;;;10.90;99.90;;;;;;4369189;32;19950;-73
2022/11/04 08:53:06;;;;;;;;;;;10.90;99.90;;;;;;4374277;32;19952;-72
2022/11/04 08:55:32;;;;;;;;;;;10.90;99.90;;;;;;4373298;32;19990;-74
2022/11/04 08:57:58;;;;;;;;;;;10.90;99.90;;;;;;4371856;32;20338;-73
2022/11/04 09:00:24;;;;;;;;;;;10.90;99.90;;;;;;4371405;32;20382;-74
2022/11/04 09:02:49;;;;;;;;;;;10.90;99.90;;;;;;4356207;32;20357;-73
2022/11/04 09:05:15;;;;;;;;;;;10.90;99.90;;;;;;4345283;32;19989;-74
2022/11/04 09:07:41;;;;;;;;;;;11.00;99.90;;;;;;4365757;32;19946;-72
2022/11/04 09:10:08;;;;;;;;;;;11.00;99.90;;;;;;4370908;32;19981;-73
2022/11/04 09:12:33;;;;;;;;;;;11.00;99.90;;;;;;4365388;32;20375;-72
2022/11/04 09:14:58;;;;;;;;;;;11.00;99.90;;;;;;4363972;32;19942;-75
2022/11/04 09:17:24;;;;;;;;;;;11.10;99.90;;;;;;4365338;32;19946;-74
2022/11/04 09:19:49;;;;;;;;;;;11.00;99.90;;;;;;4370224;32;20354;-73
2022/11/04 09:22:15;;;;;;;;;;;11.00;99.90;;;;;;4373572;32;19951;-73
2022/11/04 09:24:40;;;;;;;;;;;11.00;99.90;;;;;;4371710;32;20364;-72
2022/11/04 09:27:06;;;;;;;;;;;11.10;99.90;;;;;;4373104;32;20006;-74
2022/11/04 09:29:32;;;;;;;;;;;11.10;99.90;;;;;;4371182;32;19947;-74
2022/11/04 09:31:59;;;;;;;;;;;11.10;99.90;;;;;;4359298;32;19996;-73
2022/11/04 09:34:24;;;;;;;;;;;11.10;99.90;;;;;;4345131;32;19969;-74
2022/11/04 09:36:53;;;;;;;;;;;11.10;99.90;;;;;;4356885;32;19949;-72
2022/11/04 09:39:18;;;;;;;;;;;11.10;99.90;;;;;;4371003;32;19981;-73
2022/11/04 09:42:05;;;;;;;;;;;11.20;99.90;;;;;;4370120;32;19950;-73
2022/11/04 09:44:47;;;;;;;;;;;11.20;99.90;;;;;;4351059;32;19957;-73
2022/11/04 09:47:12;;;;;;;;;;;11.20;99.90;;;;;;4364553;32;20295;-72
2022/11/04 09:49:39;;;;;;;;;;;11.20;99.90;;;;;;4372745;32;19962;-72
2022/11/04 09:52:23;;;;;;;;;;;11.20;99.90;;;;;;4371368;32;19950;-73
2022/11/04 09:54:53;;;;;;;;;;;11.20;99.90;;;;;;4378712;32;19962;-73
2022/11/04 09:57:19;;;;;;;;;;;11.20;99.90;;;;;;4370768;32;19969;-72
2022/11/04 09:59:45;;;;;;;;;;;11.30;99.90;;;;;;4373243;32;19962;-73
2022/11/04 10:02:17;;;;;;;;;;;11.30;99.90;;;;;;4363012;32;19958;-73
2022/11/04 10:04:50;;;;;;;;;;;11.20;99.90;;;;;;4346991;32;20381;-73
2022/11/04 10:07:22;;;;;;;;;;;11.20;99.90;;;;;;4363398;32;20319;-73
2022/11/04 10:09:52;;;;;;;;;;;11.20;99.90;;;;;;4373511;32;20064;-72
2022/11/04 10:12:37;;;;;;;;;;;11.20;99.90;;;;;;4370817;32;20452;-74
2022/11/04 10:15:22;;;;;;;;;;;11.10;99.90;;;;;;4350039;32;20030;-73
2022/11/04 10:17:53;;;;;;;;;;;11.10;99.90;;;;;;4356792;32;19977;-72
2022/11/04 10:20:19;;;;;;;;;;;11.10;99.90;;;;;;4374115;32;19986;-71
2022/11/04 10:22:47;;;;;;;;;;;11.10;99.90;;;;;;4375163;32;19961;-72
2022/11/04 10:25:14;;;;;;;;;;;11.10;99.90;;;;;;4372960;32;19965;-73
2022/11/04 10:27:41;;;;;;;;;;;11.10;99.90;;;;;;4370127;32;20051;-72
2022/11/04 10:30:23;;;;;;;;;;;11.10;99.90;;;;;;4374191;32;19950;-74
2022/11/04 10:33:00;;;;;;;;;;;11.20;99.90;;;;;;4342919;32;20429;-73
2022/11/04 10:35:43;;;;;;;;;;;11.10;99.90;;;;;;4336771;32;19977;-74
2022/11/04 10:38:14;;;;;;;;;;;11.10;99.90;;;;;;4367529;32;19969;-71
2022/11/04 10:40:40;;;;;;;;;;;11.10;99.90;;;;;;4375587;32;20436;-73
2022/11/04 10:43:09;;;;;;;;;;;11.10;99.90;;;;;;4366881;32;20383;-73
2022/11/04 10:45:42;;;;;;;;;;;11.10;99.90;;;;;;4362587;32;20320;-74
2022/11/04 10:48:12;;;;;;;;;;;11.10;99.90;;;;;;4371130;32;19954;-72
2022/11/04 10:50:40;;;;;;;;;;;11.10;99.90;;;;;;4375222;32;19974;-72
2022/11/04 10:53:25;;;;;;;;;;;11.10;99.90;;;;;;4370898;32;19957;-73
2022/11/04 10:56:01;;;;;;;;;;;11.10;99.90;;;;;;4362807;32;19962;-73
2022/11/04 10:58:29;;;;;;;;;;;11.10;99.90;;;;;;4371104;32;19977;-72
2022/11/04 11:00:56;;;;;;;;;;;11.10;99.90;;;;;;4364296;32;19942;-73
2022/11/04 11:03:23;;;;;;;;;;;11.10;99.90;;;;;;4353272;32;19965;-73
2022/11/04 11:05:52;;;;;;;;;;;11.00;99.90;;;;;;4349505;32;19966;-73
2022/11/04 11:08:36;;;;;;;;;;;11.00;99.90;;;;;;4368149;32;20335;-72
2022/11/04 11:11:02;;;;;;;;;;;11.00;99.90;;;;;;4376486;32;19950;-72
2022/11/04 11:13:33;;;;;;;;;;;11.00;99.90;;;;;;4360168;32;20691;-74
2022/11/04 11:16:04;;;;;;;;;;;11.00;99.90;;;;;;4364341;32;20004;-73
2022/11/04 11:18:29;;;;;;;;;;;11.00;99.90;;;;;;4371741;32;20010;-72
2022/11/04 11:21:04;;;;;;;;;;;11.00;99.90;;;;;;4375492;32;19962;-74
2022/11/04 11:23:32;;;;;;;;;;;11.00;99.90;;;;;;4374078;32;19958;-72
2022/11/04 11:25:58;;;;;;;;;;;11.00;99.90;;;;;;4372947;32;19946;-73
2022/11/04 11:28:24;;;;;;;;;;;11.00;99.90;;;;;;4372451;32;19970;-72
2022/11/04 11:30:51;;;;;;;;;;;11.00;99.90;;;;;;4364436;32;20058;-73
2022/11/04 11:33:19;;;;;;;;;;;11.00;99.90;;;;;;4352975;32;20347;-73
2022/11/04 11:35:48;;;;;;;;;;;11.00;99.90;;;;;;4345924;32;19965;-73
2022/11/04 11:38:16;;;;;;;;;;;11.10;99.90;;;;;;4365397;32;19978;-72
2022/11/04 11:40:41;;;;;;;;;;;11.10;99.90;;;;;;4369856;32;20411;-72
2022/11/04 11:43:19;;;;;;;;;;;11.10;99.90;;;;;;4362283;32;19942;-74
2022/11/04 11:45:47;;;;;;;;;;;11.10;99.90;;;;;;4360666;32;20000;-73
2022/11/04 11:48:29;;;;;;;;;;;11.10;99.90;;;;;;4367923;32;19974;-72
2022/11/04 11:50:58;;;;;;;;;;;11.10;99.90;;;;;;4374737;32;20042;-72
2022/11/04 11:53:25;;;;;;;;;;;11.10;99.90;;;;;;4373137;32;19970;-73
2022/11/04 11:55:57;;;;;;;;;;;11.10;99.90;;;;;;4373341;32;20382;-73
2022/11/04 11:58:30;;;;;;;;;;;11.10;99.90;;;;;;4371939;32;19976;-72
2022/11/04 12:01:07;;;;;;;;;;;11.10;99.90;;;;;;4367740;32;20110;-73
2022/11/04 12:03:39;;;;;;;;;;;11.10;99.90;;;;;;4355601;32;19960;-74
2022/11/04 12:06:06;;;;;;;;;;;11.20;99.90;;;;;;4352239;32;19950;-74
2022/11/04 12:08:52;;;;;;;;;;;11.10;99.90;;;;;;4368643;32;19970;-73
2022/11/04 12:11:21;;;;;;;;;;;11.10;99.90;;;;;;4362716;32;20038;-73
2022/11/04 12:13:51;;;;;;;;;;;11.10;99.90;;;;;;4362695;32;20000;-73
2022/11/04 12:16:36;;;;;;;;;;;11.10;99.90;;;;;;4360632;32;20362;-73
2022/11/04 12:19:08;;;;;;;;;;;11.10;99.90;;;;;;4360446;32;19955;-73
2022/11/04 12:21:37;;;;;;;;;;;11.10;99.90;;;;;;4371630;32;20041;-74
2022/11/04 12:24:09;;;;;;;;;;;11.10;99.90;;;;;;4370521;32;20390;-73
2022/11/04 12:26:36;;;;;;;;;;;11.20;99.90;;;;;;4372380;32;19990;-73
2022/11/04 12:29:03;;;;;;;;;;;11.10;99.90;;;;;;4372084;32;20016;-72
2022/11/04 12:31:35;;;;;;;;;;;11.10;99.90;;;;;;4362882;32;19976;-74
2022/11/04 12:34:16;;;;;;;;;;;11.10;99.90;;;;;;4349832;32;20711;-73
2022/11/04 12:36:51;;;;;;;;;;;11.20;99.90;;;;;;4353686;32;19966;-73
2022/11/04 12:39:36;;;;;;;;;;;11.20;99.90;;;;;;4366736;32;19950;-75
2022/11/04 12:42:08;;;;;;;;;;;11.10;99.90;;;;;;4356928;32;19949;-74
2022/11/04 12:44:41;;;;;;;;;;;11.10;99.90;;;;;;4358856;32;20426;-72
2022/11/04 12:47:26;;;;;;;;;;;11.10;99.90;;;;;;4365001;32;20356;-73
2022/11/04 12:50:11;;;;;;;;;;;11.00;99.90;;;;;;4361274;32;19957;-72
2022/11/04 12:52:44;;;;;;;;;;;11.00;99.90;;;;;;4362203;32;19958;-73
2022/11/04 12:55:19;;;;;;;;;;;11.10;99.90;;;;;;4372094;32;19957;-73
2022/11/04 12:57:53;;;;;;;;;;;11.10;99.90;;;;;;4371195;32;19988;-73
2022/11/04 13:00:23;;;;;;;;;;;11.10;99.90;;;;;;4370633;32;20303;-72
2022/11/04 13:02:55;;;;;;;;;;;11.10;99.90;;;;;;4359106;32;20495;-74
2022/11/04 13:05:22;;;;;;;;;;;11.10;99.90;;;;;;4348468;32;19969;-74
2022/11/04 13:07:51;;;;;;;;;;;11.00;99.90;;;;;;4363421;32;20000;-72
2022/11/04 13:10:21;;;;;;;;;;;11.00;99.90;;;;;;4369642;32;19997;-72
2022/11/04 13:12:47;;;;;;;;;;;11.00;99.90;;;;;;4366732;32;20406;-74
2022/11/04 13:15:15;;;;;;;;;;;11.00;99.90;;;;;;4361240;32;20355;-73
2022/11/04 13:17:42;;;;;;;;;;;11.00;99.90;;;;;;4365585;32;19942;-72
2022/11/04 13:20:12;;;;;;;;;;;11.00;99.90;;;;;;4371701;32;20332;-73
2022/11/04 13:22:39;;;;;;;;;;;11.00;99.90;;;;;;4369694;32;20335;-72
2022/11/04 13:25:13;;;;;;;;;;;11.00;99.90;;;;;;4373347;32;19969;-72
2022/11/04 13:27:43;;;;;;;;;;;10.90;99.90;;;;;;4375298;32;20434;-72
2022/11/04 13:30:29;;;;;;;;;;;10.90;99.90;;;;;;4369783;32;19974;-73
2022/11/04 13:32:58;;;;;;;;;;;10.90;99.90;;;;;;4346709;32;19958;-73
2022/11/04 13:35:30;;;;;;;;;;;10.90;99.90;;;;;;4351217;32;19954;-73
2022/11/04 13:37:59;;;;;;;;;;;10.90;99.90;;;;;;4367822;32;20319;-72
2022/11/04 13:40:26;;;;;;;;;;;10.90;99.90;;;;;;4373537;32;20020;-71
2022/11/04 13:43:38;;;;;;;;;;;10.90;99.90;;;;;;4364710;32;19942;-72
2022/11/04 13:45:53;;;;;;;;;;;10.80;99.90;;;;;;4357941;32;19957;-72
2022/11/04 13:48:20;;;;;;;;;;;10.90;99.90;;;;;;4371767;32;19962;-72
2022/11/04 13:50:54;;;;;;;;;;;10.80;99.90;;;;;;4373317;32;19949;-72
2022/11/04 13:53:19;;;;;;;;;;;10.80;99.90;;;;;;4368607;32;19957;-73
2022/11/04 13:55:49;;;;;;;;;;;10.80;99.90;;;;;;4373741;32;20252;-72
2022/11/04 13:58:20;;;;;;;;;;;10.90;99.90;;;;;;4374548;32;20002;-73
2022/11/04 14:01:05;;;;;;;;;;;10.90;99.90;;;;;;4367880;32;20031;-73
2022/11/04 14:03:38;;;;;;;;;;;10.90;99.90;;;;;;4342007;32;20376;-74
2022/11/04 14:06:05;;;;;;;;;;;10.90;99.90;;;;;;4353030;32;19969;-72
2022/11/04 14:08:31;;;;;;;;;;;11.00;99.90;;;;;;4370069;32;19949;-71
2022/11/04 14:10:58;;;;;;;;;;;11.00;99.90;;;;;;4371778;32;19949;-72
2022/11/04 14:13:26;;;;;;;;;;;11.00;99.90;;;;;;4364503;32;19986;-73
2022/11/04 14:16:12;;;;;;;;;;;11.00;99.90;;;;;;4361950;32;19969;-72
2022/11/04 14:18:39;;;;;;;;;;;11.10;99.90;;;;;;4360544;32;19950;-73
2022/11/04 14:21:09;;;;;;;;;;;11.10;99.90;;;;;;4372038;32;19947;-73
2022/11/04 14:23:35;;;;;;;;;;;11.10;99.90;;;;;;4369229;32;19974;-73
2022/11/04 14:26:02;;;;;;;;;;;11.20;99.90;;;;;;4369504;32;20016;-73
2022/11/04 14:28:29;;;;;;;;;;;11.10;99.90;;;;;;4372909;32;20009;-72
2022/11/04 14:30:58;;;;;;;;;;;11.10;99.90;;;;;;4365871;32;19978;-73
2022/11/04 14:33:29;;;;;;;;;;;11.10;99.90;;;;;;4354734;32;20011;-73
2022/11/04 14:35:55;;;;;;;;;;;11.00;99.90;;;;;;4361864;32;19969;-72
2022/11/04 14:38:25;;;;;;;;;;;11.10;99.90;;;;;;4367252;32;19974;-74
2022/11/04 14:40:52;;;;;;;;;;;11.10;99.90;;;;;;4365575;32;19987;-74
2022/11/04 14:43:21;;;;;;;;;;;11.00;99.90;;;;;;4363782;32;19988;-72
2022/11/04 14:45:47;;;;;;;;;;;11.00;99.90;;;;;;4361671;32;19981;-73
2022/11/04 14:48:17;;;;;;;;;;;11.00;99.90;;;;;;4371650;32;20398;-71